.
WxDataArchive / Data Records for 2008-10-15
2008-10-14 October 2008 2008-10-16

Data Records for Wednesday, 15 October 2008

Time	Temp	Chill	HIndex	Humid	Dewpt	 Wind 	HiWind	WindDir	Rain 	Barom 
-----	----	-----	------	-----	-----	------	------	-------	-----	----- 
00:00	57.5	57.5	57.5	68	47.0	0	0	---	0.00	30.121 
00:05	57.5	57.5	57.5	68	47.0	0	0	---	0.00	30.118 
00:10	57.6	57.6	57.6	66	46.3	0	0	---	0.00	30.118 
00:15	57.6	57.6	57.6	65	45.9	0	0	---	0.00	30.121 
00:20	57.8	57.8	57.8	64	45.7	0	0	---	0.00	30.117 
00:25	58.0	58.0	58.0	65	46.3	0	0	---	0.00	30.114 
00:30	58.1	58.1	58.1	65	46.4	0	0	---	0.00	30.111 
00:35	58.1	58.1	58.1	65	46.4	0	0	---	0.00	30.111 
00:40	58.1	58.1	58.1	65	46.4	0	0	---	0.00	30.114 
00:45	58.0	58.0	58.0	64	45.9	0	0	---	0.00	30.112 
00:50	58.0	58.0	58.0	63	45.5	0	1	315	0.00	30.115 
00:55	58.0	58.0	58.0	64	45.9	0	0	---	0.00	30.121 
01:00	58.0	58.0	58.0	64	45.9	0	0	---	0.00	30.123 
01:05	58.0	58.0	58.0	64	45.9	0	0	---	0.00	30.122 
01:10	58.0	58.0	58.0	63	45.5	0	2	315	0.00	30.121 
01:15	58.1	58.1	58.1	63	45.6	0	1	315	0.00	30.124 
01:20	58.1	58.1	58.1	63	45.6	0	0	---	0.00	30.125 
01:25	58.1	58.1	58.1	63	45.6	0	1	315	0.00	30.123 
01:30	58.1	58.1	58.1	63	45.6	0	1	315	0.00	30.120 
01:35	58.1	58.1	58.1	62	45.1	0	1	315	0.00	30.117 
01:40	58.0	58.0	58.0	62	45.1	0	1	315	0.00	30.114 
01:45	58.0	58.0	58.0	64	45.9	0	0	---	0.00	30.111 
01:50	58.0	58.0	58.0	63	45.5	0	1	315	0.00	30.111 
01:55	57.8	57.8	57.8	64	45.7	0	0	---	0.00	30.110 
02:00	57.6	57.6	57.6	64	45.5	0	0	---	0.00	30.110 
02:05	57.5	57.5	57.5	65	45.8	0	0	---	0.00	30.108 
02:10	57.2	57.2	57.2	64	45.1	0	0	---	0.00	30.111 
02:15	57.2	57.2	57.2	63	44.7	0	2	315	0.00	30.109 
02:20	57.0	57.0	57.0	64	44.9	0	0	---	0.00	30.110 
02:25	57.0	57.0	57.0	64	44.9	0	0	---	0.00	30.109 
02:30	57.0	57.0	57.0	63	44.5	0	1	315	0.00	30.107 
02:35	57.0	57.0	57.0	63	44.5	0	0	---	0.00	30.104 
02:40	57.0	57.0	57.0	64	44.9	0	0	---	0.00	30.102 
02:45	57.0	57.0	57.0	65	45.4	0	0	---	0.00	30.102 
02:50	57.0	57.0	57.0	64	44.9	0	0	---	0.00	30.099 
02:55	56.9	56.9	56.9	63	44.4	0	0	---	0.00	30.097 
03:00	57.0	57.0	57.0	65	45.4	0	0	---	0.00	30.094 
03:05	56.9	56.9	56.9	63	44.4	0	0	---	0.00	30.090 
03:10	56.9	56.9	56.9	63	44.4	0	1	315	0.00	30.084 
03:15	56.9	56.9	56.9	63	44.4	0	1	315	0.00	30.079 
03:20	56.9	56.9	56.9	64	44.8	0	0	---	0.00	30.079 
03:25	56.9	56.9	56.9	65	45.3	0	0	---	0.00	30.080 
03:30	56.9	56.9	56.9	64	44.8	0	1	315	0.00	30.082 
03:35	56.9	56.9	56.9	65	45.3	0	0	---	0.00	30.082 
03:40	56.7	56.7	56.7	64	44.7	0	0	---	0.00	30.082 
03:45	56.7	56.7	56.7	64	44.7	0	0	---	0.00	30.081 
03:50	56.7	56.7	56.7	64	44.7	0	0	---	0.00	30.081 
03:55	56.9	56.9	56.9	64	44.8	0	0	---	0.00	30.081 
04:00	56.9	56.9	56.9	64	44.8	0	0	---	0.00	30.083 
04:05	56.9	56.9	56.9	65	45.3	0	0	---	0.00	30.088 
04:10	56.9	56.9	56.9	65	45.3	0	0	---	0.00	30.089 
04:15	56.9	56.9	56.9	64	44.8	0	0	---	0.00	30.085 
04:20	56.9	56.9	56.9	63	44.4	0	1	315	0.00	30.081 
04:25	56.9	56.9	56.9	64	44.8	0	0	---	0.00	30.081 
04:30	56.9	56.9	56.9	63	44.4	0	1	315	0.00	30.083 
04:35	56.9	56.9	56.9	62	44.0	0	0	---	0.00	30.082 
04:40	56.9	56.9	56.9	62	44.0	0	0	---	0.00	30.085 
04:45	56.9	56.9	56.9	63	44.4	0	0	---	0.00	30.087 
04:50	56.9	56.9	56.9	64	44.8	0	0	---	0.00	30.083 
04:55	56.9	56.9	56.9	63	44.4	0	1	315	0.00	30.081 
05:00	56.9	56.9	56.9	64	44.8	0	0	---	0.00	30.087 
05:05	56.9	56.9	56.9	64	44.8	0	1	315	0.00	30.087 
05:10	56.9	56.9	56.9	64	44.8	0	1	315	0.00	30.085 
05:15	56.9	56.9	56.9	64	44.8	0	0	---	0.00	30.086 
05:20	56.9	56.9	56.9	65	45.3	0	1	315	0.00	30.082 
05:25	56.9	56.9	56.9	64	44.8	0	1	315	0.00	30.081 
05:30	56.9	56.9	56.9	65	45.3	0	1	315	0.00	30.081 
05:35	56.9	56.9	56.9	66	45.7	0	1	315	0.00	30.079 
05:40	56.9	56.9	56.9	66	45.7	0	1	315	0.00	30.080 
05:45	56.9	56.9	56.9	66	45.7	0	1	315	0.00	30.077 
05:50	56.7	56.7	56.7	66	45.5	0	1	315	0.00	30.076 
05:55	56.7	56.7	56.7	66	45.5	0	1	315	0.00	30.074 
06:00	56.6	56.6	56.6	66	45.4	0	1	315	0.00	30.070 
06:05	56.6	56.6	56.6	66	45.4	0	1	315	0.00	30.069 
06:10	56.5	56.5	56.5	67	45.7	0	1	315	0.00	30.069 
06:15	56.5	56.5	56.5	67	45.7	0	1	315	0.00	30.070 
06:20	56.5	56.5	56.5	67	45.7	0	1	315	0.00	30.070 
06:25	56.5	56.5	56.5	68	46.1	0	1	315	0.00	30.068 
06:30	56.5	56.5	56.5	68	46.1	0	1	315	0.00	30.067 
06:35	56.5	56.5	56.5	67	45.7	0	1	315	0.00	30.066 
06:40	56.5	56.5	56.5	67	45.7	0	1	315	0.00	30.064 
06:45	56.5	56.5	56.5	67	45.7	0	3	338	0.00	30.062 
06:50	56.5	56.5	56.5	67	45.7	0	1	338	0.00	30.066 
06:55	56.5	56.5	56.5	67	45.7	0	1	338	0.00	30.067 
07:00	56.5	56.5	56.5	67	45.7	0	1	338	0.00	30.067 
07:05	56.5	56.5	56.5	68	46.1	0	0	---	0.00	30.068 
07:10	56.6	56.6	56.6	69	46.5	0	0	---	0.00	30.069 
07:15	56.6	56.6	56.6	69	46.5	0	0	---	0.00	30.071 
07:20	56.6	56.6	56.6	70	46.9	0	0	---	0.00	30.072 
07:25	56.6	56.6	56.6	69	46.5	0	1	338	0.00	30.072 
07:30	56.6	56.6	56.6	69	46.5	0	1	338	0.00	30.072 
07:35	56.7	56.7	56.7	69	46.6	0	1	338	0.00	30.071 
07:40	56.7	56.7	56.7	69	46.6	0	1	338	0.00	30.073 
07:45	56.9	56.9	56.9	68	46.4	0	1	338	0.00	30.073 
07:50	56.9	56.9	56.9	69	46.8	0	1	338	0.00	30.073 
07:55	57.0	57.0	57.0	69	46.9	0	1	338	0.00	30.073 
08:00	57.0	57.0	57.0	68	46.5	0	2	338	0.00	30.075 
08:05	57.2	57.2	57.2	69	47.1	0	1	22	0.00	30.076 
08:10	57.2	57.2	57.2	69	47.1	0	2	22	0.00	30.073 
08:15	57.3	57.3	57.3	69	47.2	0	1	22	0.00	30.074 
08:20	57.5	57.5	57.5	69	47.4	0	2	22	0.00	30.074 
08:25	57.6	57.6	57.6	69	47.5	0	1	22	0.00	30.071 
08:30	57.8	57.8	57.8	70	48.1	0	1	22	0.00	30.069 
08:35	58.0	58.0	58.0	69	47.9	0	1	22	0.00	30.069 
08:40	58.3	58.3	58.3	70	48.6	0	1	22	0.00	30.069 
08:45	58.4	58.4	58.4	70	48.7	0	1	22	0.00	30.070 
08:50	58.6	58.6	58.6	70	48.8	0	2	22	0.00	30.069 
08:55	58.6	58.6	58.6	71	49.2	0	1	22	0.00	30.067 
09:00	58.7	58.7	58.7	71	49.3	0	0	---	0.00	30.067 
09:05	58.7	58.7	58.7	73	50.1	0	1	22	0.00	30.068 
09:10	58.7	58.7	58.7	73	50.1	0	2	22	0.00	30.064 
09:15	58.7	58.7	58.7	75	50.8	0	2	22	0.00	30.066 
09:20	58.7	58.7	58.7	77	51.5	0	2	22	0.00	30.065 
09:25	58.7	58.7	58.7	79	52.2	0	2	22	0.00	30.058 
09:30	58.6	58.6	58.6	81	52.8	0	1	22	0.00	30.054 
09:35	58.6	58.6	58.6	82	53.1	0	1	22	0.00	30.052 
09:40	58.9	58.9	58.9	84	54.1	0	2	22	0.00	30.047 
09:45	59.2	59.2	59.2	84	54.4	0	2	45	0.00	30.043 
09:50	59.5	59.5	59.5	83	54.3	0	1	45	0.00	30.049 
09:55	59.6	59.6	59.6	83	54.4	0	2	45	0.00	30.050 
10:00	59.8	59.8	59.8	83	54.6	0	1	45	0.00	30.048 
10:05	59.9	59.9	59.9	84	55.0	0	1	45	0.00	30.048 
10:10	60.1	60.1	60.1	84	55.2	1	4	90	0.00	30.043 
10:15	60.2	60.2	60.2	84	55.3	1	2	90	0.00	30.038 
10:20	60.5	60.5	60.5	84	55.6	0	3	90	0.00	30.037 
10:25	60.7	60.7	60.7	84	55.8	0	1	90	0.00	30.038 
10:30	61.0	61.0	61.0	85	56.5	0	1	90	0.00	30.037 
10:35	61.2	61.2	61.2	86	57.0	0	1	90	0.01	30.036 
10:40	61.2	61.2	61.2	87	57.3	0	1	90	0.01	30.035 
10:45	61.0	61.0	61.0	88	57.4	0	1	90	0.01	30.029 
10:50	60.9	60.9	60.9	89	57.6	0	1	90	0.01	30.025 
10:55	60.7	60.7	60.7	90	57.7	0	1	90	0.01	30.022 
11:00	60.7	60.7	60.7	91	58.1	0	0	---	0.00	30.027 
11:05	60.5	60.5	60.5	91	57.9	0	1	90	0.01	30.021 
11:10	60.7	60.7	60.7	92	58.4	0	2	90	0.00	30.016 
11:15	61.0	61.0	61.0	92	58.7	0	1	90	0.00	30.018 
11:20	61.2	61.2	61.2	93	59.2	0	0	---	0.00	30.017 
11:25	61.3	61.3	61.3	93	59.3	0	1	90	0.00	30.006 
11:30	61.6	61.6	61.6	93	59.6	0	2	90	0.00	30.004 
11:35	61.8	61.8	61.8	93	59.8	1	3	90	0.01	30.002 
11:40	61.8	61.8	61.8	94	60.1	0	2	90	0.00	30.002 
11:45	62.4	62.4	62.4	94	60.6	0	1	90	0.00	30.000 
11:50	62.7	62.7	62.7	94	60.9	1	3	90	0.00	29.999 
11:55	63.1	63.1	63.1	94	61.3	0	1	90	0.00	29.995 
12:00	63.5	63.5	63.5	95	62.0	0	1	90	0.00	29.991 
12:05	64.0	64.0	64.0	95	62.5	0	2	90	0.00	29.987 
12:10	64.5	64.5	64.5	95	63.0	0	2	90	0.00	29.985 
12:15	65.2	65.2	65.2	95	63.7	0	2	90	0.00	29.983 
12:20	65.6	65.6	65.6	95	64.1	0	2	90	0.00	29.980 
12:25	66.1	66.1	66.1	95	64.6	0	2	90	0.00	29.978 
12:30	66.6	66.6	66.6	94	64.8	0	1	90	0.00	29.971 
12:35	66.9	66.9	66.9	94	65.1	0	1	90	0.00	29.969 
12:40	67.1	67.1	67.1	93	65.0	0	1	90	0.00	29.966 
12:45	67.4	67.4	67.4	93	65.3	0	0	---	0.00	29.965 
12:50	67.6	67.6	67.6	92	65.2	0	2	90	0.00	29.963 
12:55	67.8	67.8	67.8	92	65.4	0	0	---	0.00	29.959 
13:00	67.9	67.9	67.9	92	65.5	0	0	---	0.00	29.954 
13:05	67.9	67.9	67.9	92	65.5	0	0	---	0.00	29.951 
13:10	68.1	68.1	68.1	92	65.7	0	0	---	0.00	29.951 
13:15	68.1	68.1	68.1	92	65.7	0	0	---	0.00	29.950 
13:20	68.3	68.3	68.3	92	65.9	0	0	---	0.00	29.950 
13:25	68.4	68.4	68.4	92	66.0	0	1	90	0.00	29.949 
13:30	68.8	68.8	68.8	91	66.1	0	1	90	0.00	29.949 
13:35	69.1	69.1	69.1	91	66.4	0	1	90	0.00	29.947 
13:40	69.4	69.4	69.4	90	66.3	0	1	90	0.00	29.947 
13:45	69.9	69.9	69.9	89	66.5	0	2	68	0.00	29.943 
13:50	70.4	70.4	70.4	88	66.7	0	1	68	0.00	29.937 
13:55	70.9	70.9	70.9	86	66.5	0	2	68	0.00	29.933 
14:00	71.5	71.5	71.5	84	66.4	1	3	270	0.00	29.930 
14:05	72.0	72.0	72.0	83	66.5	1	5	270	0.00	29.931 
14:10	72.5	72.5	72.5	80	66.0	1	4	248	0.00	29.930 
14:15	73.0	73.0	73.0	77	65.3	2	4	248	0.00	29.924 
14:20	73.7	73.7	73.7	75	65.3	2	6	292	0.00	29.924 
14:25	74.0	74.0	74.0	74	65.2	1	2	292	0.00	29.918 
14:30	73.9	73.9	73.9	74	65.1	1	3	248	0.00	29.914 
14:35	73.7	73.7	73.7	74	64.9	1	3	270	0.00	29.913 
14:40	74.0	74.0	74.0	75	65.6	1	2	270	0.00	29.913 
14:45	74.6	74.6	74.6	74	65.7	0	2	270	0.00	29.911 
14:50	74.4	74.4	74.4	72	64.8	1	3	315	0.00	29.908 
14:55	74.2	74.2	74.2	71	64.2	1	3	270	0.00	29.907 
15:00	74.2	74.2	74.2	72	64.6	1	3	270	0.00	29.903 
15:05	74.2	74.2	74.2	72	64.6	0	2	270	0.00	29.898 
15:10	74.4	74.4	74.4	72	64.8	0	2	270	0.00	29.897 
15:15	74.6	74.6	74.6	72	65.0	0	2	270	0.00	29.894 
15:20	74.6	74.6	74.6	71	64.6	0	1	270	0.00	29.891 
15:25	74.7	74.7	74.7	72	65.1	0	1	270	0.00	29.891 
15:30	74.7	74.7	74.7	71	64.7	0	1	270	0.00	29.885 
15:35	74.6	74.6	74.6	71	64.6	0	1	270	0.00	29.885 
15:40	74.4	74.4	74.4	71	64.4	0	1	270	0.00	29.881 
15:45	74.2	74.2	74.2	73	65.0	0	0	---	0.00	29.874 
15:50	74.0	74.0	74.0	73	64.8	0	0	---	0.00	29.874 
15:55	73.9	73.9	73.9	75	65.5	0	0	---	0.00	29.871 
16:00	73.5	73.5	73.5	77	65.8	0	0	---	0.01	29.867 
16:05	72.8	72.8	72.8	81	66.6	0	0	---	0.03	29.866 
16:10	71.5	71.5	71.5	84	66.4	0	2	270	0.04	29.867 
16:15	69.4	69.4	69.4	88	65.7	3	9	315	0.13	29.852 
16:20	68.6	68.6	68.6	90	65.5	1	5	248	0.03	29.877 
16:25	68.4	68.4	68.4	91	65.7	0	2	248	0.00	29.872 
16:30	68.3	68.3	68.3	92	65.9	0	1	292	0.02	29.869 
16:35	68.1	68.1	68.1	93	66.0	0	0	---	0.02	29.863 
16:40	68.1	68.1	68.1	93	66.0	0	1	292	0.03	29.884 
16:45	67.9	67.9	67.9	94	66.1	0	1	292	0.18	29.876 
16:50	67.9	67.9	67.9	94	66.1	0	1	292	0.28	29.886 
16:55	67.9	67.9	67.9	94	66.1	0	3	270	0.05	29.905 
17:00	67.9	67.9	67.9	94	66.1	0	1	270	0.00	29.902 
17:05	67.8	67.8	67.8	95	66.3	0	2	270	0.01	29.903 
17:10	67.8	67.8	67.8	95	66.3	0	1	270	0.00	29.900 
17:15	67.8	67.8	67.8	95	66.3	0	1	270	0.00	29.901 
17:20	67.8	67.8	67.8	95	66.3	0	1	270	0.00	29.899 
17:25	67.8	67.8	67.8	95	66.3	0	0	---	0.00	29.890 
17:30	67.8	67.8	67.8	95	66.3	0	0	---	0.00	29.888 
17:35	67.6	67.6	67.6	95	66.1	0	0	---	0.00	29.889 
17:40	67.6	67.6	67.6	95	66.1	0	0	---	0.00	29.893 
17:45	67.6	67.6	67.6	95	66.1	0	0	---	0.00	29.894 
17:50	67.6	67.6	67.6	96	66.4	0	0	---	0.00	29.894 
17:55	67.6	67.6	67.6	96	66.4	0	0	---	0.00	29.893 
18:00	67.4	67.4	67.4	96	66.2	0	0	---	0.00	29.889 
18:05	67.4	67.4	67.4	96	66.2	0	0	---	0.00	29.889 
18:10	67.4	67.4	67.4	96	66.2	0	0	---	0.00	29.891 
18:15	67.4	67.4	67.4	96	66.2	0	0	---	0.00	29.892 
18:20	67.3	67.3	67.3	96	66.1	0	0	---	0.00	29.893 
18:25	67.3	67.3	67.3	96	66.1	0	0	---	0.00	29.893 
18:30	67.3	67.3	67.3	96	66.1	0	0	---	0.00	29.895 
18:35	67.1	67.1	67.1	96	65.9	0	0	---	0.00	29.897 
18:40	67.3	67.3	67.3	96	66.1	0	1	270	0.00	29.895 
18:45	67.3	67.3	67.3	96	66.1	0	1	270	0.00	29.899 
18:50	67.4	67.4	67.4	96	66.2	0	1	270	0.00	29.899 
18:55	67.4	67.4	67.4	96	66.2	0	3	225	0.00	29.900 
19:00	67.4	67.4	67.4	96	66.2	0	2	225	0.00	29.899 
19:05	67.4	67.4	67.4	96	66.2	1	3	225	0.00	29.898 
19:10	67.3	67.3	67.3	96	66.1	0	1	225	0.00	29.899 
19:15	67.3	67.3	67.3	96	66.1	0	2	248	0.00	29.902 
19:20	67.3	67.3	67.3	96	66.1	1	2	225	0.00	29.903 
19:25	67.1	67.1	67.1	96	65.9	0	2	225	0.00	29.903 
19:30	67.1	67.1	67.1	96	65.9	0	3	225	0.00	29.904 
19:35	67.1	67.1	67.1	96	65.9	0	2	248	0.01	29.903 
19:40	67.1	67.1	67.1	96	65.9	0	2	248	0.00	29.902 
19:45	67.1	67.1	67.1	96	65.9	0	2	248	0.00	29.904 
19:50	67.1	67.1	67.1	96	65.9	0	2	248	0.00	29.910 
19:55	66.9	66.9	66.9	96	65.7	0	2	248	0.00	29.909 
20:00	66.9	66.9	66.9	96	65.7	0	3	248	0.00	29.908 
20:05	66.9	66.9	66.9	96	65.7	0	2	248	0.00	29.906 
20:10	66.9	66.9	66.9	96	65.7	0	2	248	0.00	29.903 
20:15	66.9	66.9	66.9	96	65.7	0	1	248	0.00	29.903 
20:20	66.9	66.9	66.9	96	65.7	0	1	248	0.00	29.902 
20:25	66.9	66.9	66.9	96	65.7	0	1	248	0.00	29.902 
20:30	66.9	66.9	66.9	96	65.7	0	1	248	0.00	29.896 
20:35	66.8	66.8	66.8	96	65.6	0	1	248	0.00	29.890 
20:40	66.8	66.8	66.8	96	65.6	0	2	248	0.00	29.892 
20:45	66.6	66.6	66.6	96	65.4	0	1	248	0.00	29.897 
20:50	66.6	66.6	66.6	96	65.4	0	1	248	0.00	29.900 
20:55	66.4	66.4	66.4	96	65.2	0	1	248	0.00	29.900 
21:00	66.4	66.4	66.4	96	65.2	0	2	248	0.00	29.902 
21:05	66.3	66.3	66.3	96	65.1	0	2	248	0.00	29.900 
21:10	66.0	66.0	66.0	96	64.8	0	1	248	0.00	29.900 
21:15	65.8	65.8	65.8	96	64.6	0	1	248	0.00	29.900 
21:20	65.8	65.8	65.8	96	64.6	0	1	248	0.00	29.901 
21:25	65.6	65.6	65.6	96	64.4	0	1	248	0.00	29.901 
21:30	65.6	65.6	65.6	96	64.4	0	1	248	0.00	29.900 
21:35	65.6	65.6	65.6	96	64.4	0	1	248	0.00	29.902 
21:40	65.5	65.5	65.5	96	64.3	0	2	248	0.02	29.904 
21:45	65.5	65.5	65.5	96	64.3	0	2	248	0.03	29.905 
21:50	65.3	65.3	65.3	96	64.1	0	1	248	0.05	29.902 
21:55	65.3	65.3	65.3	96	64.1	1	3	248	0.02	29.903 
22:00	63.2	63.2	63.2	95	61.7	3	7	315	0.02	29.917 
22:05	61.3	61.3	61.3	95	59.9	3	6	315	0.00	29.921 
22:10	60.7	60.7	60.7	95	59.3	2	6	315	0.01	29.925 
22:15	60.4	60.4	60.4	96	59.3	2	5	292	0.01	29.924 
22:20	59.9	59.9	59.9	96	58.8	2	6	292	0.02	29.929 
22:25	59.8	59.8	59.8	96	58.7	1	4	315	0.02	29.930 
22:30	59.3	59.3	59.3	96	58.2	2	6	315	0.00	29.936 
22:35	57.8	57.8	57.8	95	56.4	3	7	315	0.01	29.940 
22:40	56.6	56.6	56.6	94	54.9	3	7	292	0.01	29.941 
22:45	56.2	56.2	56.2	95	54.8	3	6	292	0.01	29.943 
22:50	55.7	55.7	55.7	95	54.3	3	6	292	0.00	29.943 
22:55	55.4	55.4	55.4	95	54.0	3	7	292	0.01	29.943 
23:00	55.3	55.3	55.3	95	53.9	2	6	292	0.00	29.946 
23:05	55.1	55.1	55.1	95	53.7	1	6	315	0.01	29.943 
23:10	55.1	55.1	55.1	95	53.7	1	4	292	0.00	29.945 
23:15	55.1	55.1	55.1	95	53.7	1	3	315	0.00	29.953 
23:20	55.1	55.1	55.1	95	53.7	1	4	315	0.00	29.954 
23:25	55.0	55.0	55.0	95	53.6	1	3	315	0.00	29.956 
23:30	55.0	55.0	55.0	95	53.6	1	2	315	0.00	29.957 
23:35	54.8	54.8	54.8	95	53.4	2	7	315	0.00	29.960 
23:40	54.5	54.5	54.5	95	53.1	2	6	292	0.00	29.962 
23:45	54.4	54.4	54.4	95	53.0	3	6	292	0.00	29.970 
23:50	54.4	54.4	54.4	95	53.0	1	3	270	0.00	29.971 
23:55	54.2	54.2	54.2	94	52.5	2	4	315	0.00	29.971 

CoCoRaHS
IN-AL-39
A2 Web Hosting
Creative Commons License
GoDaddy
Look for:

loaded 2017-10-20 19:44:11 • last modified 2010-11-18 10:43:29
Privacy PolicyDisclaimer
• wx.awcolley.com is powered by PmWiki v.2002016 •
• all content (unless otherwise noted) © 2017 A W Colley